Time;durP1;ratioP1;P1;durP2;ratioP2;P2;SDS_P1;SDS_P2;PMS_P1;PMS_P2;Temp;Humidity;BMP_temperature;BMP_pressure;BME280_temperature;BME280_humidity;BME280_pressure;Samples;Min_cycle;Max_cycle;Signal;HPM_P1;HPM_P2
2022/08/27 00:00:23;;;;;;;15.05;13.45;;;18.90;99.90;;;;;;5011990;28;20109;-72
2022/08/27 00:02:49;;;;;;;19.10;13.30;;;18.80;99.90;;;;;;5012059;28;20064;-73
2022/08/27 00:05:16;;;;;;;20.05;14.13;;;19.10;99.90;;;;;;5011945;28;20100;-73
2022/08/27 00:07:43;;;;;;;20.00;13.95;;;18.90;99.90;;;;;;5011578;28;20022;-73
2022/08/27 00:10:13;;;;;;;19.88;13.57;;;18.90;99.90;;;;;;5011621;28;20038;-73
2022/08/27 00:12:40;;;;;;;16.10;13.45;;;18.80;99.90;;;;;;4998173;28;20023;-73
2022/08/27 00:15:07;;;;;;;16.15;13.50;;;18.90;99.90;;;;;;4992586;28;20023;-75
2022/08/27 00:17:34;;;;;;;15.77;13.73;;;19.00;99.90;;;;;;4992245;28;20066;-76
2022/08/27 00:20:00;;;;;;;19.88;14.55;;;18.90;99.90;;;;;;4978528;28;20417;-75
2022/08/27 00:22:26;;;;;;;17.38;13.48;;;18.90;99.90;;;;;;4992445;28;20388;-75
2022/08/27 00:24:52;;;;;;;16.27;12.93;;;19.00;99.90;;;;;;4992454;28;20165;-75
2022/08/27 00:27:18;;;;;;;17.65;13.93;;;19.10;99.90;;;;;;4992481;28;20109;-74
2022/08/27 00:29:44;;;;;;;17.77;13.32;;;19.00;99.90;;;;;;4999945;28;20034;-76
2022/08/27 00:32:09;;;;;;;17.55;12.68;;;19.10;99.90;;;;;;5016055;28;20026;-73
2022/08/27 00:34:35;;;;;;;20.85;14.35;;;19.20;99.90;;;;;;5009429;28;20034;-72
2022/08/27 00:37:02;;;;;;;18.98;13.40;;;19.20;99.90;;;;;;5009170;28;20058;-72
2022/08/27 00:39:28;;;;;;;16.40;13.82;;;19.20;99.90;;;;;;5007775;28;20031;-72
2022/08/27 00:41:53;;;;;;;19.25;14.18;;;18.90;99.90;;;;;;5009210;28;20091;-72
2022/08/27 00:44:19;;;;;;;21.02;12.93;;;19.00;99.90;;;;;;5002946;28;20480;-72
2022/08/27 00:46:46;;;;;;;18.67;13.00;;;18.90;99.90;;;;;;4996431;28;20061;-72
2022/08/27 00:49:44;;;;;;;16.92;12.52;;;19.20;99.90;;;;;;5003183;28;20069;-72
2022/08/27 00:52:23;;;;;;;15.48;11.27;;;19.10;99.90;;;;;;4998631;28;20089;-72
2022/08/27 00:54:57;;;;;;;16.85;11.68;;;19.00;99.90;;;;;;5002214;28;20014;-72
2022/08/27 00:57:23;;;;;;;17.52;10.98;;;19.00;99.90;;;;;;4995809;28;20473;-73
2022/08/27 00:59:49;;;;;;;14.23;10.30;;;19.00;99.90;;;;;;4995925;28;20034;-72
2022/08/27 01:02:17;;;;;;;15.10;10.88;;;19.20;99.90;;;;;;4995821;28;20023;-75
2022/08/27 01:04:55;;;;;;;12.40;10.13;;;19.30;99.90;;;;;;4994476;28;20419;-75
2022/08/27 01:07:22;;;;;;;13.25;9.90;;;19.30;99.90;;;;;;5005249;28;20030;-74
2022/08/27 01:09:48;;;;;;;16.33;10.93;;;19.40;99.90;;;;;;5001606;28;20022;-75
2022/08/27 01:12:15;;;;;;;12.98;10.52;;;19.40;99.90;;;;;;5004511;28;20026;-74
2022/08/27 01:14:43;;;;;;;15.05;10.70;;;19.30;99.90;;;;;;5007441;28;20023;-74
2022/08/27 01:17:09;;;;;;;14.15;10.32;;;19.40;99.90;;;;;;5004245;28;20113;-75
2022/08/27 01:19:42;;;;;;;15.48;11.13;;;19.20;99.90;;;;;;5001921;28;20117;-74
2022/08/27 01:22:26;;;;;;;16.05;11.13;;;19.30;99.90;;;;;;5004133;28;20031;-73
2022/08/27 01:24:57;;;;;;;17.58;11.25;;;19.20;99.90;;;;;;4988273;28;20057;-73
2022/08/27 01:27:26;;;;;;;14.45;11.05;;;19.30;99.90;;;;;;5000811;28;20027;-73
2022/08/27 01:29:51;;;;;;;16.85;11.63;;;19.30;99.90;;;;;;4994931;28;20033;-74
2022/08/27 01:32:22;;;;;;;16.33;11.68;;;19.10;99.90;;;;;;5001976;28;20481;-75
2022/08/27 01:34:48;;;;;;;16.63;12.88;;;19.10;99.90;;;;;;4985080;28;20018;-75
2022/08/27 01:37:15;;;;;;;18.25;13.32;;;19.00;99.90;;;;;;4994873;28;20101;-75
2022/08/27 01:39:41;;;;;;;23.88;14.95;;;18.60;99.90;;;;;;4993275;28;20026;-75
2022/08/27 01:42:21;;;;;;;24.58;15.52;;;18.70;99.90;;;;;;4994084;28;20134;-73
2022/08/27 01:44:58;;;;;;;23.27;17.42;;;18.50;99.90;;;;;;4994958;28;20105;-73
2022/08/27 01:47:26;;;;;;;29.05;19.67;;;18.40;99.90;;;;;;4994837;28;20022;-73
2022/08/27 01:49:52;;;;;;;24.33;16.88;;;18.40;99.90;;;;;;4993353;28;20603;-73
2022/08/27 01:52:21;;;;;;;23.73;17.63;;;18.40;99.90;;;;;;5000533;28;20098;-73
2022/08/27 01:54:47;;;;;;;25.98;18.13;;;18.50;99.90;;;;;;5000120;28;20022;-74
2022/08/27 01:57:13;;;;;;;24.05;17.35;;;18.50;99.90;;;;;;4986694;28;20022;-73
2022/08/27 01:59:39;;;;;;;21.95;16.10;;;18.60;99.90;;;;;;5014227;28;20091;-74
2022/08/27 02:02:06;;;;;;;26.05;16.58;;;18.60;99.90;;;;;;5014289;28;20022;-74
2022/08/27 02:04:32;;;;;;;18.88;14.55;;;18.70;99.90;;;;;;5014156;28;20037;-74
2022/08/27 02:06:59;;;;;;;22.15;17.60;;;18.80;99.90;;;;;;5006391;28;20177;-76
2022/08/27 02:09:25;;;;;;;28.15;18.95;;;18.80;99.90;;;;;;5006130;28;20025;-75
2022/08/27 02:11:51;;;;;;;28.83;18.92;;;18.60;99.90;;;;;;4981589;28;20033;-75
2022/08/27 02:14:17;;;;;;;27.02;18.48;;;18.30;99.90;;;;;;4994690;28;20034;-74
2022/08/27 02:16:42;;;;;;;26.40;18.55;;;18.30;99.90;;;;;;5013927;28;20022;-74
2022/08/27 02:19:08;;;;;;;27.00;19.10;;;18.20;99.90;;;;;;5013635;28;20029;-72
2022/08/27 02:21:34;;;;;;;24.92;18.92;;;18.30;99.90;;;;;;5013929;28;20026;-72
2022/08/27 02:23:59;;;;;;;26.05;18.17;;;18.40;99.90;;;;;;5013671;28;20499;-73
2022/08/27 02:26:26;;;;;;;20.50;15.32;;;18.40;99.90;;;;;;5012498;28;20025;-75
2022/08/27 02:28:53;;;;;;;20.88;15.30;;;18.50;99.90;;;;;;5012448;28;20034;-75
2022/08/27 02:31:19;;;;;;;16.67;14.02;;;18.70;99.90;;;;;;5006033;28;20041;-73
2022/08/27 02:33:44;;;;;;;19.67;14.70;;;18.90;99.90;;;;;;5007357;28;20080;-74
2022/08/27 02:36:11;;;;;;;19.75;14.05;;;18.90;99.90;;;;;;5006806;28;20030;-74
2022/08/27 02:38:36;;;;;;;17.02;13.50;;;18.90;99.90;;;;;;5005590;28;20113;-74
2022/08/27 02:41:02;;;;;;;17.35;13.68;;;19.00;99.90;;;;;;4992757;28;20151;-74
2022/08/27 02:43:28;;;;;;;20.73;14.77;;;18.80;99.90;;;;;;4993978;28;20029;-73
2022/08/27 02:45:53;;;;;;;18.77;14.63;;;18.70;99.90;;;;;;4993897;28;20093;-75
2022/08/27 02:48:19;;;;;;;17.17;14.38;;;18.70;99.90;;;;;;4994064;28;20023;-73
2022/08/27 02:50:45;;;;;;;25.88;18.55;;;18.70;99.90;;;;;;5005273;28;20085;-75
2022/08/27 02:53:11;;;;;;;22.52;16.90;;;18.60;99.90;;;;;;5006623;28;20139;-74
2022/08/27 02:55:37;;;;;;;24.70;17.02;;;18.40;99.90;;;;;;5005625;28;20023;-73
2022/08/27 02:58:03;;;;;;;17.80;14.52;;;18.50;99.90;;;;;;5005247;28;20029;-75
2022/08/27 03:00:29;;;;;;;27.70;18.63;;;18.60;99.90;;;;;;4987316;28;20041;-76
2022/08/27 03:02:56;;;;;;;26.48;20.33;;;18.50;99.90;;;;;;4999965;28;20101;-76
2022/08/27 03:05:22;;;;;;;28.90;20.73;;;18.30;99.90;;;;;;5000178;28;20384;-75
2022/08/27 03:07:48;;;;;;;31.38;21.63;;;18.10;99.90;;;;;;4999653;28;20026;-75
2022/08/27 03:10:16;;;;;;;31.30;21.05;;;17.90;99.90;;;;;;5005005;28;20030;-72
2022/08/27 03:12:43;;;;;;;33.58;23.17;;;17.90;99.90;;;;;;5006534;28;20084;-71
2022/08/27 03:15:13;;;;;;;32.35;22.65;;;17.90;99.90;;;;;;4998991;28;20022;-71
2022/08/27 03:20:24;;;;;;;32.60;21.85;;;17.90;99.90;;;;;;5002991;28;20407;-72
2022/08/27 03:22:49;;;;;;;27.45;20.33;;;17.90;99.90;;;;;;5006616;28;20388;-72
2022/08/27 03:25:15;;;;;;;30.05;21.20;;;18.30;99.90;;;;;;4993311;28;20030;-71
2022/08/27 03:27:41;;;;;;;31.35;21.27;;;18.10;99.90;;;;;;4992712;28;20585;-72
2022/08/27 03:30:14;;;;;;;40.78;23.85;;;18.00;99.90;;;;;;4992930;28;20026;-73
2022/08/27 03:32:41;;;;;;;40.47;24.42;;;18.00;99.90;;;;;;5006218;28;20150;-71
2022/08/27 03:35:07;;;;;;;34.38;22.05;;;17.90;99.90;;;;;;5004199;28;20029;-74
2022/08/27 03:37:33;;;;;;;29.17;21.08;;;18.10;99.90;;;;;;4999346;28;20101;-73
2022/08/27 03:39:58;;;;;;;34.45;22.52;;;18.10;99.90;;;;;;5001201;28;20125;-75
2022/08/27 03:42:25;;;;;;;36.72;23.08;;;17.90;99.90;;;;;;5006210;28;20037;-75
2022/08/27 03:44:50;;;;;;;29.80;21.50;;;18.10;99.90;;;;;;4992874;28;20046;-73
2022/08/27 03:47:16;;;;;;;36.08;23.38;;;18.10;99.90;;;;;;5010383;28;20469;-73
2022/08/27 03:49:42;;;;;;;40.53;24.58;;;18.10;99.90;;;;;;5000854;28;20528;-74
2022/08/27 03:52:08;;;;;;;40.38;23.88;;;18.00;99.90;;;;;;5005831;28;20142;-73
2022/08/27 03:54:36;;;;;;;29.23;21.55;;;17.90;99.90;;;;;;5004165;28;20026;-73
2022/08/27 03:57:02;;;;;;;34.25;23.25;;;18.00;99.90;;;;;;5007473;28;20061;-74
2022/08/27 03:59:27;;;;;;;43.65;25.35;;;18.00;99.90;;;;;;4992543;28;20037;-75
2022/08/27 04:01:53;;;;;;;46.70;27.40;;;17.90;99.90;;;;;;5010138;28;20029;-75
2022/08/27 04:04:19;;;;;;;39.72;25.73;;;17.80;99.90;;;;;;5011377;28;20025;-75
2022/08/27 04:06:44;;;;;;;42.40;26.10;;;17.90;99.90;;;;;;5011938;28;20072;-75
2022/08/27 04:09:10;;;;;;;40.00;24.83;;;17.90;99.90;;;;;;5011658;28;20104;-74
2022/08/27 04:11:36;;;;;;;33.13;22.88;;;17.90;99.90;;;;;;4994384;28;20030;-75
2022/08/27 04:14:06;;;;;;;36.15;23.23;;;18.00;99.90;;;;;;4992813;28;20034;-73
2022/08/27 04:16:33;;;;;;;28.30;21.58;;;18.00;99.90;;;;;;5010626;28;20037;-74
2022/08/27 04:18:58;;;;;;;35.13;23.10;;;18.00;99.90;;;;;;5011773;28;20030;-75
2022/08/27 04:21:24;;;;;;;25.90;20.35;;;18.10;99.90;;;;;;5011835;28;20720;-74
2022/08/27 04:23:50;;;;;;;32.10;23.67;;;18.30;99.90;;;;;;5011933;28;20026;-74
2022/08/27 04:26:16;;;;;;;27.83;20.08;;;18.60;99.90;;;;;;5010524;28;20117;-74
2022/08/27 04:28:42;;;;;;;27.02;19.98;;;18.50;99.90;;;;;;4999807;28;20519;-73
2022/08/27 04:31:08;;;;;;;26.98;21.08;;;18.60;99.90;;;;;;4992109;28;20031;-75
2022/08/27 04:33:34;;;;;;;26.95;19.95;;;18.60;99.90;;;;;;5002829;28;20018;-74
2022/08/27 04:36:03;;;;;;;29.05;20.20;;;18.90;99.90;;;;;;5006396;28;20081;-74
2022/08/27 04:38:29;;;;;;;22.33;18.42;;;18.70;99.90;;;;;;4992000;28;20026;-74
2022/08/27 04:43:39;;;;;;;26.40;19.98;;;18.80;99.90;;;;;;4992119;28;20495;-75
2022/08/27 04:46:05;;;;;;;24.45;19.45;;;18.50;99.90;;;;;;4992004;28;20105;-75
2022/08/27 04:48:31;;;;;;;25.48;19.23;;;18.50;99.90;;;;;;4991760;28;20022;-75
2022/08/27 04:50:56;;;;;;;34.30;22.10;;;18.50;99.90;;;;;;4999300;28;20022;-75
2022/08/27 04:53:22;;;;;;;26.85;20.25;;;18.60;99.90;;;;;;5006353;28;20065;-75
2022/08/27 04:55:51;;;;;;;29.40;21.02;;;18.40;99.90;;;;;;5002439;28;20488;-75
2022/08/27 04:58:19;;;;;;;29.00;21.10;;;18.40;99.90;;;;;;5006461;28;20041;-76
2022/08/27 05:00:48;;;;;;;30.48;20.73;;;18.30;99.90;;;;;;4990888;28;20511;-75
2022/08/27 05:03:14;;;;;;;30.63;21.73;;;18.50;99.90;;;;;;4991867;28;20117;-75
2022/08/27 05:05:41;;;;;;;30.27;22.05;;;18.50;99.90;;;;;;4991211;28;20030;-75
2022/08/27 05:08:08;;;;;;;28.88;22.05;;;18.50;99.90;;;;;;4991398;28;20592;-75
2022/08/27 05:10:41;;;;;;;27.30;21.55;;;18.50;99.90;;;;;;4999493;28;20034;-74
2022/08/27 05:13:07;;;;;;;29.05;21.45;;;18.60;99.90;;;;;;4991775;28;20141;-75
2022/08/27 05:15:33;;;;;;;34.13;23.35;;;18.70;99.90;;;;;;5004372;28;20081;-75
2022/08/27 05:17:59;;;;;;;30.85;21.08;;;18.30;99.90;;;;;;5001775;28;20014;-75
2022/08/27 05:20:29;;;;;;;26.90;19.92;;;18.60;99.90;;;;;;5015011;28;20099;-75
2022/08/27 05:22:56;;;;;;;28.38;20.73;;;18.70;99.90;;;;;;5010568;28;20026;-75
2022/08/27 05:25:23;;;;;;;25.50;20.17;;;18.80;99.90;;;;;;5006382;28;20034;-75
2022/08/27 05:27:48;;;;;;;28.38;21.30;;;19.00;99.90;;;;;;4995797;28;20038;-75
2022/08/27 05:30:14;;;;;;;28.75;21.58;;;19.00;99.90;;;;;;4995185;28;20028;-75
2022/08/27 05:32:40;;;;;;;31.27;21.10;;;18.90;99.90;;;;;;5007259;28;20034;-75
2022/08/27 05:35:06;;;;;;;34.08;23.52;;;18.80;99.90;;;;;;4995106;28;20030;-75
2022/08/27 05:37:33;;;;;;;34.00;24.08;;;18.80;99.90;;;;;;4998948;28;20072;-75
2022/08/27 05:40:04;;;;;;;28.83;21.33;;;18.90;99.90;;;;;;5004006;28;20041;-75
2022/08/27 05:42:30;;;;;;;34.53;22.48;;;18.70;99.90;;;;;;5012962;28;20032;-75
2022/08/27 05:44:56;;;;;;;29.20;20.48;;;19.00;99.90;;;;;;5003266;28;20041;-77
2022/08/27 05:47:22;;;;;;;26.05;20.73;;;19.00;99.90;;;;;;4994850;28;20030;-77
2022/08/27 05:49:52;;;;;;;30.45;21.92;;;19.00;99.90;;;;;;5006760;28;20396;-75
2022/08/27 05:52:18;;;;;;;33.08;21.45;;;19.00;99.90;;;;;;5000102;28;20018;-75
2022/08/27 05:54:43;;;;;;;31.60;22.13;;;19.10;99.90;;;;;;5002082;28;20029;-73
2022/08/27 05:57:09;;;;;;;27.33;21.42;;;19.10;99.90;;;;;;5014034;28;20029;-75
2022/08/27 06:02:20;;;;;;;25.95;19.70;;;18.90;99.90;;;;;;4984130;28;20045;-73
2022/08/27 06:04:46;;;;;;;13.82;9.70;;;18.70;99.90;;;;;;5009125;28;20026;-75
2022/08/27 06:07:11;;;;;;;9.45;8.20;;;18.30;99.90;;;;;;5004810;28;20042;-76
2022/08/27 06:09:37;;;;;;;9.43;8.30;;;18.30;99.90;;;;;;4999392;28;20516;-75
2022/08/27 06:12:04;;;;;;;12.77;8.60;;;18.40;99.90;;;;;;4995178;28;20026;-76
2022/08/27 06:14:29;;;;;;;11.63;8.40;;;18.30;99.90;;;;;;5010086;28;20048;-74
2022/08/27 06:16:55;;;;;;;11.90;9.30;;;18.40;99.90;;;;;;5012954;28;20480;-73
2022/08/27 06:19:22;;;;;;;9.80;7.88;;;18.40;99.90;;;;;;5014464;28;20026;-74
2022/08/27 06:21:47;;;;;;;9.05;6.78;;;18.40;99.90;;;;;;5013936;28;20054;-73
2022/08/27 06:24:13;;;;;;;7.03;6.32;;;18.00;99.90;;;;;;5001258;28;20068;-73
2022/08/27 06:26:41;;;;;;;8.45;6.40;;;18.00;99.90;;;;;;4999830;28;20026;-73
2022/08/27 06:29:07;;;;;;;10.32;7.05;;;17.90;99.90;;;;;;4993772;28;20065;-73
2022/08/27 06:31:34;;;;;;;9.23;7.70;;;18.10;99.90;;;;;;5003373;28;20068;-74
2022/08/27 06:34:02;;;;;;;9.30;7.25;;;18.30;99.90;;;;;;5010684;28;20449;-73
2022/08/27 06:36:28;;;;;;;8.85;7.60;;;18.30;99.90;;;;;;5003594;28;20055;-75
2022/08/27 06:38:55;;;;;;;10.90;7.75;;;18.10;99.90;;;;;;5013435;28;20030;-75
2022/08/27 06:41:24;;;;;;;10.05;7.00;;;18.20;99.90;;;;;;5012542;28;20434;-75
2022/08/27 06:43:50;;;;;;;9.32;6.97;;;18.20;99.90;;;;;;5012447;28;20395;-75
2022/08/27 06:46:19;;;;;;;11.05;7.10;;;18.20;99.90;;;;;;4996934;28;20031;-75
2022/08/27 06:48:46;;;;;;;9.60;7.13;;;18.20;99.90;;;;;;4993416;28;20027;-75
2022/08/27 06:51:15;;;;;;;9.52;6.78;;;18.30;99.90;;;;;;4993687;28;20110;-73
2022/08/27 06:53:42;;;;;;;10.45;8.02;;;18.10;99.90;;;;;;4993830;28;20097;-74
2022/08/27 06:56:10;;;;;;;10.45;7.45;;;18.10;99.90;;;;;;4992469;28;20026;-74
2022/08/27 06:58:36;;;;;;;9.25;7.25;;;18.10;99.90;;;;;;4993244;28;20122;-74
2022/08/27 07:01:14;;;;;;;10.95;7.43;;;18.30;99.90;;;;;;4992310;28;20069;-75
2022/08/27 07:03:42;;;;;;;10.85;7.72;;;18.30;99.90;;;;;;4993504;28;20023;-71
2022/08/27 07:06:08;;;;;;;10.48;7.90;;;18.30;99.90;;;;;;4992175;28;20026;-74
2022/08/27 07:08:34;;;;;;;9.40;7.35;;;18.40;99.90;;;;;;4991694;28;20045;-74
2022/08/27 07:11:00;;;;;;;10.18;6.60;;;;;;;;;;4993356;28;20026;-74
2022/08/27 07:13:27;;;;;;;7.75;5.72;;;18.40;99.90;;;;;;4991690;28;20680;-74
2022/08/27 07:15:53;;;;;;;10.60;6.50;;;18.40;99.90;;;;;;4992482;28;20026;-74
2022/08/27 07:18:19;;;;;;;7.57;5.85;;;18.70;99.90;;;;;;4992896;28;20034;-74
2022/08/27 07:20:44;;;;;;;10.80;7.50;;;18.70;99.90;;;;;;4993222;28;20452;-74
2022/08/27 07:23:10;;;;;;;8.95;6.68;;;18.80;99.90;;;;;;4992026;28;20030;-74
2022/08/27 07:25:35;;;;;;;7.00;6.22;;;18.50;99.90;;;;;;4993108;28;20027;-74
2022/08/27 07:28:01;;;;;;;7.22;5.88;;;18.50;99.90;;;;;;4991516;28;20030;-74
2022/08/27 07:30:27;;;;;;;9.25;6.45;;;18.70;99.90;;;;;;4992972;28;20030;-74
2022/08/27 07:32:53;;;;;;;8.40;6.75;;;18.70;99.90;;;;;;4992892;28;20025;-74
2022/08/27 07:35:18;;;;;;;10.50;6.22;;;18.70;99.90;;;;;;4991715;28;20026;-74
2022/08/27 07:37:44;;;;;;;9.98;7.03;;;18.90;99.90;;;;;;4995750;28;20094;-74
2022/08/27 07:40:13;;;;;;;10.65;6.57;;;18.90;99.90;;;;;;4992712;28;20404;-74
2022/08/27 07:45:25;;;;;;;8.13;7.07;;;18.80;99.90;;;;;;4992757;28;20029;-73
2022/08/27 07:47:51;;;;;;;10.30;7.25;;;18.80;99.90;;;;;;4992373;28;20061;-74
2022/08/27 07:50:17;;;;;;;12.20;7.40;;;18.80;99.90;;;;;;4992441;28;20062;-74
2022/08/27 07:52:42;;;;;;;9.30;6.88;;;18.90;99.90;;;;;;4992601;28;20056;-74
2022/08/27 07:55:13;;;;;;;12.20;8.25;;;19.10;99.90;;;;;;4991292;28;20049;-74
2022/08/27 07:57:39;;;;;;;10.50;6.88;;;18.90;99.90;;;;;;4991128;28;20393;-75
2022/08/27 08:00:09;;;;;;;9.10;7.45;;;19.20;99.90;;;;;;4991142;28;20392;-74
2022/08/27 08:02:35;;;;;;;11.15;8.18;;;19.10;99.90;;;;;;4991207;28;20033;-74
2022/08/27 08:05:00;;;;;;;10.30;7.70;;;19.20;99.90;;;;;;4992568;28;20026;-74
2022/08/27 08:07:27;;;;;;;9.60;7.72;;;19.10;99.90;;;;;;4992145;28;20031;-74
2022/08/27 08:09:53;;;;;;;9.13;6.90;;;19.10;99.90;;;;;;5005350;28;20113;-74
2022/08/27 08:12:18;;;;;;;9.48;7.28;;;19.10;99.90;;;;;;4991194;28;20108;-75
2022/08/27 08:14:45;;;;;;;8.43;6.97;;;19.20;99.90;;;;;;4992395;28;20433;-74
2022/08/27 08:17:12;;;;;;;9.60;6.82;;;19.20;99.90;;;;;;4992133;28;20023;-74
2022/08/27 08:19:39;;;;;;;8.02;6.75;;;19.30;99.90;;;;;;4991006;28;20029;-74
2022/08/27 08:22:04;;;;;;;9.05;7.15;;;19.00;99.90;;;;;;4992389;28;20030;-74
2022/08/27 08:24:30;;;;;;;9.88;7.80;;;18.70;99.90;;;;;;4992293;28;20038;-74
2022/08/27 08:26:56;;;;;;;9.45;7.45;;;18.90;99.90;;;;;;4992210;28;20026;-75
2022/08/27 08:29:21;;;;;;;11.20;8.07;;;19.00;99.90;;;;;;4990688;28;20089;-74
2022/08/27 08:31:47;;;;;;;8.20;7.07;;;19.00;99.90;;;;;;4992181;28;20032;-75
2022/08/27 08:34:13;;;;;;;9.70;7.57;;;19.10;99.90;;;;;;4992187;28;20030;-74
2022/08/27 08:36:38;;;;;;;9.00;7.35;;;19.30;99.90;;;;;;4992160;28;20110;-74
2022/08/27 08:39:04;;;;;;;8.95;6.90;;;19.40;99.90;;;;;;4991970;28;20203;-75
2022/08/27 08:41:58;;;;;;;9.43;6.47;;;19.60;99.90;;;;;;5004335;28;20026;-76
2022/08/27 08:44:33;;;;;;;8.73;6.90;;;19.70;99.90;;;;;;4996084;28;20129;-76
2022/08/27 08:47:03;;;;;;;9.98;7.15;;;19.90;99.90;;;;;;4991895;28;20029;-74
2022/08/27 08:49:39;;;;;;;11.45;7.32;;;19.60;99.90;;;;;;4992134;28;20037;-76
2022/08/27 08:52:23;;;;;;;8.75;6.78;;;19.70;99.90;;;;;;4995745;28;20093;-76
2022/08/27 08:54:50;;;;;;;20.70;10.20;;;19.90;99.90;;;;;;5002413;28;20286;-78
2022/08/27 08:57:23;;;;;;;10.32;6.88;;;20.10;99.90;;;;;;4990615;28;20021;-78
2022/08/27 09:00:13;;;;;;;7.70;6.43;;;20.10;99.90;;;;;;4993652;28;20026;-78
2022/08/27 09:02:44;;;;;;;8.73;7.20;;;19.90;99.90;;;;;;4996058;28;20034;-78
2022/08/27 09:05:10;;;;;;;9.35;6.32;;;20.10;99.90;;;;;;5015268;28;20053;-77
2022/08/27 09:07:53;;;;;;;9.57;7.40;;;20.40;99.90;;;;;;5015074;28;20064;-77
2022/08/27 09:10:33;;;;;;;8.57;6.97;;;20.30;99.90;;;;;;4991035;28;20025;-78
2022/08/27 09:13:02;;;;;;;10.18;6.88;;;20.00;99.90;;;;;;4999413;28;20030;-75
2022/08/27 09:15:32;;;;;;;8.10;6.60;;;20.10;99.90;;;;;;4995492;28;20058;-75
2022/08/27 09:18:11;;;;;;;8.20;6.40;;;20.70;99.90;;;;;;4995354;28;20101;-76
2022/08/27 09:20:39;;;;;;;7.13;6.28;;;20.70;99.90;;;;;;4995454;28;20050;-76
2022/08/27 09:23:15;;;;;;;7.82;6.45;;;20.80;99.90;;;;;;4994439;28;20034;-75
2022/08/27 09:25:42;;;;;;;8.20;6.97;;;21.00;99.90;;;;;;4995999;28;20026;-76
2022/08/27 09:31:06;;;;;;;8.10;6.97;;;21.10;99.90;;;;;;4964316;28;20046;-74
2022/08/27 09:33:31;;;;;;;9.55;7.47;;;20.80;99.90;;;;;;4995237;28;20022;-75
2022/08/27 09:36:02;;;;;;;6.90;6.20;;;20.20;99.90;;;;;;4993898;28;20033;-75
2022/08/27 09:38:35;;;;;;;10.63;8.13;;;20.40;99.90;;;;;;4994940;28;20026;-74
2022/08/27 09:41:27;;;;;;;7.05;6.30;;;20.90;99.90;;;;;;4995085;28;20105;-75
2022/08/27 09:44:01;;;;;;;8.05;6.28;;;20.80;99.90;;;;;;4993696;28;20404;-75
2022/08/27 09:46:27;;;;;;;9.65;7.90;;;21.20;99.90;;;;;;4992085;28;20023;-75
2022/08/27 09:48:53;;;;;;;10.98;7.35;;;21.30;99.90;;;;;;4992642;28;20026;-75
2022/08/27 09:51:24;;;;;;;8.02;6.80;;;21.20;99.90;;;;;;4994525;28;20030;-75
2022/08/27 09:53:54;;;;;;;10.13;7.13;;;21.10;99.90;;;;;;4994848;28;20105;-75
2022/08/27 09:56:32;;;;;;;10.35;7.60;;;21.30;99.90;;;;;;4993572;28;20025;-75
2022/08/27 09:59:11;;;;;;;11.13;8.30;;;21.50;99.90;;;;;;4993210;28;20109;-75
2022/08/27 10:02:13;;;;;;;11.50;8.15;;;21.10;99.90;;;;;;4992272;28;20019;-75
2022/08/27 10:04:41;;;;;;;13.00;9.32;;;21.40;99.90;;;;;;4990752;28;20113;-74
2022/08/27 10:07:25;;;;;;;13.95;9.98;;;21.80;99.90;;;;;;4994385;28;20077;-75
2022/08/27 10:10:01;;;;;;;11.48;8.75;;;21.60;99.90;;;;;;4998136;28;20116;-77
2022/08/27 10:12:32;;;;;;;;;;;21.40;99.90;;;;;;5014830;28;20022;-76
2022/08/27 10:14:59;;;;;;;11.75;9.48;;;21.50;99.90;;;;;;5001240;28;19964;-75
2022/08/27 10:18:11;;;;;;;12.45;10.63;;;21.40;99.90;;;;;;5000780;28;20022;-75
2022/08/27 10:20:52;;;;;;;12.80;10.07;;;21.30;99.90;;;;;;4996543;28;20061;-75
2022/08/27 10:23:57;;;;;;;14.20;9.85;;;21.30;99.90;;;;;;4988845;28;20104;-75
2022/08/27 10:26:37;;;;;;;10.85;9.35;;;21.10;99.90;;;;;;4994125;28;20053;-74
2022/08/27 10:29:18;;;;;;;12.25;10.95;;;21.00;99.90;;;;;;4995233;28;20030;-75
2022/08/27 10:32:00;;;;;;;13.93;11.18;;;21.00;99.90;;;;;;5007352;28;20030;-75
2022/08/27 10:34:31;;;;;;;14.30;12.30;;;21.20;99.90;;;;;;4993496;28;20026;-75
2022/08/27 10:37:16;;;;;;;14.85;12.25;;;21.20;99.90;;;;;;4991315;28;20491;-75
2022/08/27 10:39:58;;;;;;;14.85;11.50;;;21.50;99.90;;;;;;4992626;28;20485;-75
2022/08/27 10:42:41;;;;;;;13.20;10.65;;;21.10;99.90;;;;;;4995611;28;20034;-76
2022/08/27 10:45:33;;;;;;;11.63;10.43;;;21.00;99.90;;;;;;5005788;28;20061;-75
2022/08/27 10:48:07;;;;;;;13.20;11.15;;;21.40;99.90;;;;;;4989458;28;20037;-75
2022/08/27 10:50:40;;;;;;;10.43;9.25;;;21.60;99.90;;;;;;4995452;28;20054;-75
2022/08/27 10:53:34;;;;;;;11.38;9.55;;;21.80;99.90;;;;;;4999001;28;20022;-75
2022/08/27 10:56:22;;;;;;;13.85;10.02;;;21.70;99.90;;;;;;4998345;28;20097;-76
2022/08/27 10:59:25;;;;;;;12.63;9.07;;;21.90;99.90;;;;;;5002085;28;20026;-75
2022/08/27 11:02:02;;;;;;;12.98;9.48;;;21.60;99.90;;;;;;4998844;28;20472;-75
2022/08/27 11:04:33;;;;;;;9.25;7.97;;;21.40;99.90;;;;;;4993518;28;20025;-75
2022/08/27 11:07:08;;;;;;;10.10;8.85;;;21.20;99.90;;;;;;4987287;28;20046;-74
2022/08/27 11:09:41;;;;;;;12.90;8.05;;;21.10;99.90;;;;;;4993082;28;20117;-74
2022/08/27 11:12:09;;;;;;;10.00;7.45;;;21.40;99.90;;;;;;4996038;28;20034;-75
2022/08/27 11:14:46;;;;;;;9.13;7.82;;;21.40;99.90;;;;;;4993841;28;20025;-75
2022/08/27 11:17:26;;;;;;;9.02;7.07;;;21.60;99.90;;;;;;4992338;28;20026;-74
2022/08/27 11:19:54;;;;;;;10.10;7.50;;;21.70;99.90;;;;;;5004709;28;20571;-74
2022/08/27 11:22:26;;;;;;;8.70;7.38;;;21.40;99.90;;;;;;5000091;28;20056;-74
2022/08/27 11:25:11;;;;;;;11.00;7.05;;;21.60;99.90;;;;;;4993239;28;20026;-74
2022/08/27 11:27:39;;;;;;;8.77;7.45;;;21.70;99.90;;;;;;5007956;28;20029;-74
2022/08/27 11:30:23;;;;;;;6.70;6.00;;;21.50;99.90;;;;;;5002287;28;20109;-75
2022/08/27 11:33:08;;;;;;;8.18;6.60;;;21.80;99.90;;;;;;4993021;28;20133;-74
2022/08/27 11:35:52;;;;;;;6.23;5.50;;;22.10;99.90;;;;;;5008349;28;20026;-74
2022/08/27 11:38:26;;;;;;;7.00;6.30;;;22.00;99.90;;;;;;5001134;28;20033;-74
2022/08/27 11:41:10;;;;;;;6.97;5.72;;;21.80;99.90;;;;;;5011765;28;20115;-74
2022/08/27 11:43:37;;;;;;;6.18;5.60;;;21.90;99.90;;;;;;5011013;28;20029;-74
2022/08/27 11:46:08;;;;;;;6.75;6.05;;;22.10;99.90;;;;;;4992645;28;20465;-74
2022/08/27 11:48:42;;;;;;;6.20;5.60;;;22.30;99.90;;;;;;5007605;28;20109;-75
2022/08/27 11:51:27;;;;;;;6.28;5.68;;;22.30;99.90;;;;;;5010287;28;20037;-74
2022/08/27 11:54:03;;;;;;;6.53;5.65;;;22.40;99.90;;;;;;4992713;28;20019;-74
2022/08/27 11:56:28;;;;;;;10.00;6.63;;;22.70;99.90;;;;;;5005989;28;20030;-74
2022/08/27 11:58:54;;;;;;;7.78;5.95;;;22.30;99.90;;;;;;5010485;28;20022;-74
2022/08/27 12:01:28;;;;;;;7.82;5.30;;;22.60;99.90;;;;;;5012083;28;20030;-73
2022/08/27 12:04:18;;;;;;;5.28;4.78;;;22.90;99.90;;;;;;5012145;28;20399;-74
2022/08/27 12:06:50;;;;;;;3.75;3.45;;;23.30;99.90;;;;;;5010753;28;20014;-74
2022/08/27 12:09:19;;;;;;;4.80;3.90;;;23.30;99.90;;;;;;5011734;28;20507;-74
2022/08/27 12:11:57;;;;;;;5.25;4.25;;;23.40;99.90;;;;;;5011959;28;20388;-74
2022/08/27 12:14:25;;;;;;;5.68;4.75;;;23.50;99.90;;;;;;5010787;28;20017;-74
2022/08/27 12:17:22;;;;;;;4.97;4.53;;;23.10;99.90;;;;;;5011759;28;20141;-73
2022/08/27 12:19:47;;;;;;;;;;;23.00;99.90;;;;;;5012315;28;20022;-74
2022/08/27 12:25:39;;;;;;;5.80;5.05;;;23.30;99.90;;;;;;5002663;28;20036;-74
2022/08/27 12:28:07;;;;;;;4.63;4.22;;;23.50;99.90;;;;;;5011728;28;20026;-74
2022/08/27 12:30:40;;;;;;;5.82;4.45;;;23.50;99.90;;;;;;5011518;28;20026;-74
2022/08/27 12:33:25;;;;;;;4.88;4.38;;;23.60;99.90;;;;;;5011713;28;20380;-74
2022/08/27 12:35:55;;;;;;;5.10;4.60;;;23.90;99.90;;;;;;5011839;28;20030;-74
2022/08/27 12:38:35;;;;;;;4.90;4.50;;;23.70;99.90;;;;;;5009920;28;20033;-74
2022/08/27 12:41:07;;;;;;;4.93;4.43;;;24.60;99.90;;;;;;5008181;28;20037;-74
2022/08/27 12:43:34;;;;;;;5.10;4.70;;;25.50;99.90;;;;;;5011464;28;20491;-76
2022/08/27 12:46:14;;;;;;;5.72;4.60;;;24.90;99.90;;;;;;4998157;28;20467;-76
2022/08/27 12:48:52;;;;;;;5.80;5.20;;;24.10;99.90;;;;;;4989958;28;20031;-76
2022/08/27 12:51:23;;;;;;;7.10;4.85;;;23.90;99.90;;;;;;4990125;28;20500;-75
2022/08/27 12:53:55;;;;;;;5.68;4.82;;;23.80;99.90;;;;;;4989989;28;20397;-76
2022/08/27 12:56:58;;;;;;;6.07;5.47;;;23.80;99.90;;;;;;4990721;28;20038;-76
2022/08/27 12:59:50;;;;;;;7.30;5.55;;;23.10;99.90;;;;;;4992046;28;20101;-77
2022/08/27 13:02:51;;;;;;;6.85;6.03;;;23.20;99.90;;;;;;4988091;28;20022;-77
2022/08/27 13:05:20;;;;;;;9.57;5.82;;;23.60;99.90;;;;;;5010181;28;20061;-74
2022/08/27 13:07:47;;;;;;;7.70;6.28;;;23.50;99.90;;;;;;5009987;28;20083;-74